Terminal Aerodrome Forecast
Issued by NWS

Home | Current Version | Previous Version | Text Only | Print | Product List | Glossary On
Versions: 1 2 3 4 5 6 7 8 9 10 11 12 13 14 15 16 17 18 19 20 21
000
FTUS41 KOKX 310550
TAFSWF
TAF
KSWF 310550Z 3106/0112 29005KT P6SM FEW070
      TEMPO 3108/3111 2SM BR
     FM311500 29010KT P6SM FEW060
     FM312300 29007KT P6SM FEW060
     FM010200 VRB02KT P6SM FEW050
      AMD NOT SKED=

USA.gov is the U.S. government's official web portal to all federal, state and local government web resources and services.